createdAt,value
2023-05-20T00:07:33.570Z,101243.09
2023-05-20T00:17:41.369Z,101245.59
2023-05-20T00:27:47.432Z,101242.82
2023-05-20T00:37:52.113Z,101239.36
2023-05-20T00:48:00.011Z,101239.39
2023-05-20T00:58:05.037Z,101232.14
2023-05-20T01:08:10.717Z,101220.83
2023-05-20T01:18:22.731Z,101219.94
2023-05-20T01:28:28.739Z,101217.14
2023-05-20T01:38:33.214Z,101210.68
2023-05-20T01:48:38.472Z,101206.83
2023-05-20T01:58:42.189Z,101212.02
2023-05-20T02:08:46.009Z,101211.03
2023-05-20T02:18:51.922Z,101216.48
2023-05-20T02:28:55.826Z,101220.72
2023-05-20T02:39:01.451Z,101230.85
2023-05-20T02:49:05.514Z,101224.88
2023-05-20T02:59:11.620Z,101219.96
2023-05-20T03:09:15.314Z,101213.64
2023-05-20T03:19:20.063Z,101213.94
2023-05-20T03:29:25.146Z,101217.56
2023-05-20T03:39:29.370Z,101216.95
2023-05-20T03:49:33.049Z,101221.31
2023-05-20T03:59:39.026Z,101228.90
2023-05-20T04:09:44.078Z,101232.81
2023-05-20T04:19:47.781Z,101233.73
2023-05-20T04:29:52.675Z,101236.55
2023-05-20T04:39:58.858Z,101229.67
2023-05-20T04:50:03.467Z,101231.68
2023-05-20T05:00:11.074Z,101237.85
2023-05-20T05:10:18.084Z,101236.11
2023-05-20T05:20:22.206Z,101238.52
2023-05-20T05:30:26.351Z,101238.70
2023-05-20T05:40:32.123Z,101237.06
2023-05-20T05:50:37.713Z,101228.53
2023-05-20T06:00:43.838Z,101226.26
2023-05-20T06:10:51.532Z,101223.20
2023-05-20T06:20:57.542Z,101219.97
2023-05-20T06:31:02.257Z,101218.00
2023-05-20T06:41:09.674Z,101223.32
2023-05-20T06:51:14.233Z,101220.98
2023-05-20T07:01:18.481Z,101221.85
2023-05-20T07:11:23.766Z,101216.33
2023-05-20T07:21:28.075Z,101214.48
2023-05-20T07:31:49.313Z,101213.29
2023-05-20T07:41:54.059Z,101218.71
2023-05-20T07:51:57.888Z,101221.33
2023-05-20T08:02:04.273Z,101215.45
2023-05-20T08:12:08.101Z,101209.86
2023-05-20T08:22:13.299Z,101208.36
2023-05-20T08:32:17.807Z,101205.86
2023-05-20T08:42:29.589Z,101206.48
2023-05-20T08:52:35.696Z,101207.45
2023-05-20T09:02:40.381Z,101206.38
2023-05-20T09:12:44.040Z,101209.39
2023-05-20T09:22:55.464Z,101202.48
2023-05-20T09:33:00.558Z,101195.35
2023-05-20T09:43:11.436Z,101193.27
2023-05-20T09:53:16.823Z,101191.17
2023-05-20T10:03:30.675Z,101190.13
2023-05-20T10:13:43.227Z,101181.40
2023-05-20T10:23:46.857Z,101175.48
2023-05-20T10:33:55.531Z,101167.11
2023-05-20T10:44:05.895Z,101159.92
2023-05-20T10:54:11.690Z,101150.02
2023-05-20T11:04:20.066Z,101135.00
2023-05-20T11:14:24.131Z,101126.47
2023-05-20T11:24:29.247Z,101122.06
2023-05-20T11:34:41.575Z,101112.92
2023-05-20T11:44:45.803Z,101105.00
2023-05-20T11:54:56.161Z,101087.31
2023-05-20T12:04:59.853Z,101085.69
2023-05-20T12:15:08.101Z,101076.27
2023-05-20T12:25:15.674Z,101084.77
2023-05-20T12:35:42.511Z,101080.02
2023-05-20T12:45:46.636Z,101065.02
2023-05-20T12:55:50.327Z,101066.10
2023-05-20T13:05:56.342Z,101056.69
2023-05-20T13:16:00.158Z,101045.77
2023-05-20T13:26:05.488Z,101036.40
2023-05-20T13:36:09.102Z,101025.80
2023-05-20T13:46:14.939Z,101017.41
2023-05-20T13:56:19.027Z,101012.25
2023-05-20T14:06:22.690Z,101000.94
2023-05-20T14:16:26.382Z,100986.84
2023-05-20T14:26:30.091Z,100990.11
2023-05-20T14:36:33.781Z,100983.40
2023-05-20T14:46:38.335Z,100988.26
2023-05-20T14:56:46.319Z,100979.89
2023-05-20T15:06:52.461Z,100971.52
2023-05-20T15:16:58.511Z,100968.23
2023-05-20T15:27:02.463Z,100964.34
2023-05-20T15:37:06.534Z,100964.67
2023-05-20T15:47:14.222Z,100951.91
2023-05-20T15:57:19.306Z,100940.62
2023-05-20T16:07:23.290Z,100932.36
2023-05-20T16:17:27.024Z,100929.07
2023-05-20T16:27:32.815Z,100927.67
2023-05-20T16:37:36.546Z,100921.61
2023-05-20T16:47:40.277Z,100927.23
2023-05-20T16:57:46.435Z,100922.14
2023-05-20T17:07:50.085Z,100931.79
2023-05-20T17:17:53.773Z,100933.77
2023-05-20T17:27:57.443Z,100942.98
2023-05-20T17:38:01.468Z,100944.32
2023-05-20T17:48:11.565Z,100939.05
2023-05-20T17:58:17.615Z,100932.24
2023-05-20T18:08:25.477Z,100936.86
2023-05-20T18:18:29.116Z,100932.54
2023-05-20T18:28:33.155Z,100940.05
2023-05-20T18:38:39.063Z,100943.98
2023-05-20T18:48:44.260Z,100943.92
2023-05-20T18:58:47.818Z,100951.01
2023-05-20T19:08:51.613Z,100955.69
2023-05-20T19:18:55.344Z,100959.85
2023-05-20T19:28:58.968Z,100961.23
2023-05-20T19:39:02.592Z,100954.44
2023-05-20T19:49:06.855Z,100954.41
2023-05-20T19:59:10.998Z,100956.11
2023-05-20T20:09:14.811Z,100958.94
2023-05-20T20:19:19.056Z,100956.66
2023-05-20T20:29:25.207Z,100956.97
2023-05-20T20:39:30.027Z,100955.48
2023-05-20T20:49:35.379Z,100960.77
2023-05-20T20:59:40.071Z,100955.03
2023-05-20T21:09:45.764Z,100957.36
2023-05-20T21:19:51.428Z,100966.97
2023-05-20T21:29:56.823Z,100969.88
2023-05-20T21:40:01.903Z,100971.83
2023-05-20T21:50:06.707Z,100968.30
2023-05-20T22:00:17.865Z,100963.20
2023-05-20T22:10:23.365Z,100957.64
2023-05-20T22:20:28.926Z,100955.38
2023-05-20T22:30:38.514Z,100961.05
2023-05-20T22:40:42.102Z,100963.67
2023-05-20T22:50:45.779Z,100960.05
2023-05-20T23:00:49.402Z,100966.98
2023-05-20T23:10:53.091Z,100965.27
2023-05-20T23:20:58.921Z,100962.60
2023-05-20T23:31:07.048Z,100957.01
2023-05-20T23:41:11.308Z,100959.78
2023-05-20T23:51:14.942Z,100955.86
